Time;durP1;ratioP1;P1;durP2;ratioP2;P2;SDS_P1;SDS_P2;PMS_P1;PMS_P2;Temp;Humidity;BMP_temperature;BMP_pressure;BME280_temperature;BME280_humidity;BME280_pressure;Samples;Min_cycle;Max_cycle;Signal;HPM_P1;HPM_P2
2023/09/27 00:01:13;;;;;;;6.15;4.53;;;12.30;99.90;;;;;;5091447;28;20499;-64
2023/09/27 00:03:42;;;;;;;7.65;4.57;;;12.30;99.90;;;;;;5085132;28;20032;-64
2023/09/27 00:06:09;;;;;;;8.35;4.90;;;12.30;99.90;;;;;;5083208;28;20097;-64
2023/09/27 00:08:35;;;;;;;8.25;6.15;;;12.20;99.90;;;;;;5090722;28;20036;-64
2023/09/27 00:11:02;;;;;;;9.45;5.80;;;12.20;99.90;;;;;;5090817;28;20044;-64
2023/09/27 00:13:29;;;;;;;7.78;5.72;;;12.30;99.90;;;;;;5086678;28;20051;-64
2023/09/27 00:15:56;;;;;;;8.65;6.30;;;12.20;99.90;;;;;;5090966;28;20063;-64
2023/09/27 00:18:23;;;;;;;10.88;6.93;;;12.30;99.90;;;;;;5089220;28;20122;-64
2023/09/27 00:20:50;;;;;;;9.90;5.85;;;12.30;99.90;;;;;;5088146;28;20035;-64
2023/09/27 00:23:19;;;;;;;9.35;6.30;;;12.30;99.90;;;;;;5084144;28;20060;-64
2023/09/27 00:25:46;;;;;;;6.03;4.30;;;12.30;99.90;;;;;;5094535;28;20040;-63
2023/09/27 00:28:13;;;;;;;4.75;3.72;;;12.20;99.90;;;;;;5091686;28;20148;-63
2023/09/27 00:30:40;;;;;;;5.25;4.07;;;12.20;99.90;;;;;;5093531;28;20043;-64
2023/09/27 00:33:07;;;;;;;15.38;5.28;;;12.10;99.90;;;;;;5092909;28;20055;-64
2023/09/27 00:35:34;;;;;;;7.60;5.25;;;12.00;99.90;;;;;;5092966;28;20040;-64
2023/09/27 00:38:02;;;;;;;8.13;4.95;;;12.00;99.90;;;;;;5092818;28;20036;-64
2023/09/27 00:40:29;;;;;;;7.22;4.82;;;11.90;99.90;;;;;;5094434;28;20036;-64
2023/09/27 00:42:57;;;;;;;8.57;5.45;;;11.90;99.90;;;;;;5094587;28;20040;-64
2023/09/27 00:45:24;;;;;;;11.07;5.10;;;11.90;99.90;;;;;;5092137;28;20097;-64
2023/09/27 00:47:51;;;;;;;4.75;2.40;;;11.80;99.90;;;;;;5106835;28;20048;-64
2023/09/27 00:50:18;;;;;;;6.88;4.47;;;11.80;99.90;;;;;;5085803;28;20060;-64
2023/09/27 00:52:47;;;;;;;5.65;4.05;;;11.70;99.90;;;;;;5090524;28;20040;-64
2023/09/27 00:55:19;;;;;;;8.35;4.68;;;11.70;99.90;;;;;;5090985;28;20035;-64
2023/09/27 00:57:48;;;;;;;9.75;4.75;;;11.60;99.90;;;;;;5091886;28;20188;-64
2023/09/27 01:00:16;;;;;;;9.77;4.85;;;11.60;99.90;;;;;;5094050;28;20078;-64
2023/09/27 01:02:43;;;;;;;10.35;5.80;;;11.60;99.90;;;;;;5081338;28;20123;-64
2023/09/27 01:05:11;;;;;;;8.00;4.95;;;11.60;99.90;;;;;;5089035;28;20032;-64
2023/09/27 01:07:39;;;;;;;9.75;5.18;;;11.70;99.90;;;;;;5093443;28;20048;-64
2023/09/27 01:10:07;;;;;;;9.50;4.50;;;11.70;99.90;;;;;;5094220;28;20127;-64
2023/09/27 01:12:36;;;;;;;8.85;4.53;;;11.60;99.90;;;;;;5090928;28;20052;-64
2023/09/27 01:15:05;;;;;;;6.70;4.43;;;11.60;99.90;;;;;;5094031;28;20093;-64
2023/09/27 01:17:32;;;;;;;7.72;4.68;;;11.60;99.90;;;;;;5093443;28;20485;-64
2023/09/27 01:19:59;;;;;;;6.50;4.38;;;11.60;99.90;;;;;;5084498;28;20052;-64
2023/09/27 01:22:26;;;;;;;6.10;4.25;;;11.60;99.90;;;;;;5092481;28;20139;-64
2023/09/27 01:24:54;;;;;;;8.68;4.72;;;11.60;99.90;;;;;;5081986;28;20379;-64
2023/09/27 01:27:22;;;;;;;8.20;4.28;;;11.50;99.90;;;;;;5085090;28;20500;-64
2023/09/27 01:29:49;;;;;;;8.00;4.00;;;11.50;99.90;;;;;;5080861;28;20075;-64
2023/09/27 01:32:17;;;;;;;6.88;4.18;;;11.40;99.90;;;;;;5104227;28;20070;-63
2023/09/27 01:34:44;;;;;;;6.65;3.95;;;11.40;99.90;;;;;;5090250;28;20052;-64
2023/09/27 01:37:11;;;;;;;7.28;3.95;;;11.40;99.90;;;;;;5085073;28;20081;-64
2023/09/27 01:39:38;;;;;;;8.82;3.45;;;11.30;99.90;;;;;;5093623;28;20052;-62
2023/09/27 01:42:05;;;;;;;5.72;3.80;;;11.30;99.90;;;;;;5084964;28;20038;-63
2023/09/27 01:44:31;;;;;;;6.05;4.47;;;11.30;99.90;;;;;;5093385;28;20111;-64
2023/09/27 01:46:59;;;;;;;6.70;3.60;;;11.30;99.90;;;;;;5076217;28;20209;-64
2023/09/27 01:49:26;;;;;;;8.27;3.97;;;11.30;99.90;;;;;;5083522;28;20050;-64
2023/09/27 01:51:54;;;;;;;6.38;3.72;;;11.20;99.90;;;;;;5090246;28;20040;-64
2023/09/27 01:54:21;;;;;;;7.07;3.78;;;11.10;99.90;;;;;;5089602;28;20093;-64
2023/09/27 01:56:47;;;;;;;7.30;3.88;;;11.10;99.90;;;;;;5083489;28;20048;-64
2023/09/27 01:59:14;;;;;;;6.05;4.38;;;11.10;99.90;;;;;;5071132;28;20144;-64
2023/09/27 02:01:41;;;;;;;5.43;3.38;;;11.00;99.90;;;;;;5088708;28;20138;-64
2023/09/27 02:04:08;;;;;;;8.90;4.38;;;11.00;99.90;;;;;;5077184;28;20040;-63
2023/09/27 02:06:35;;;;;;;7.78;4.20;;;11.00;99.90;;;;;;5066151;28;20036;-64
2023/09/27 02:09:03;;;;;;;9.90;4.25;;;11.00;99.90;;;;;;5091347;28;20036;-64
2023/09/27 02:11:31;;;;;;;6.85;4.10;;;11.00;99.90;;;;;;5089973;28;20055;-63
2023/09/27 02:13:58;;;;;;;;;;;11.00;99.90;;;;;;5073185;28;20047;-63
2023/09/27 02:16:24;;;;;;;7.82;4.20;;;11.00;99.90;;;;;;5080520;28;20293;-64
2023/09/27 02:18:52;;;;;;;6.93;4.07;;;11.00;99.90;;;;;;5084372;28;20650;-64
2023/09/27 02:21:19;;;;;;;7.18;4.20;;;10.90;99.90;;;;;;5084991;28;20497;-63
2023/09/27 02:23:46;;;;;;;8.57;4.20;;;11.00;99.90;;;;;;5081566;28;20047;-64
2023/09/27 02:26:13;;;;;;;6.75;4.35;;;11.00;99.90;;;;;;5087440;28;20086;-64
2023/09/27 02:28:43;;;;;;;7.22;4.22;;;11.00;99.90;;;;;;5072801;28;20431;-64
2023/09/27 02:31:10;;;;;;;8.40;4.18;;;11.00;99.90;;;;;;5077439;28;20564;-64
2023/09/27 02:33:38;;;;;;;7.55;4.22;;;10.90;99.90;;;;;;5079419;28;20098;-63
2023/09/27 02:36:05;;;;;;;5.93;4.10;;;11.00;99.90;;;;;;5091005;28;20071;-63
2023/09/27 02:38:35;;;;;;;6.82;3.72;;;11.00;99.90;;;;;;5082122;28;20044;-63
2023/09/27 02:41:03;;;;;;;5.95;4.28;;;10.90;99.90;;;;;;5075853;28;20040;-64
2023/09/27 02:43:30;;;;;;;6.43;4.07;;;10.90;99.90;;;;;;5083213;28;20420;-63
2023/09/27 02:45:57;;;;;;;6.53;4.00;;;10.90;99.90;;;;;;5079580;28;20584;-63
2023/09/27 02:48:24;;;;;;;7.35;3.97;;;10.90;99.90;;;;;;5077395;28;20119;-63
2023/09/27 02:50:55;;;;;;;6.63;3.63;;;10.90;99.90;;;;;;5074087;28;20048;-64
2023/09/27 02:53:22;;;;;;;7.03;3.65;;;10.90;99.90;;;;;;5077777;28;20489;-64
2023/09/27 02:55:48;;;;;;;5.85;4.05;;;10.90;99.90;;;;;;5086976;28;20496;-64
2023/09/27 02:58:15;;;;;;;8.50;3.70;;;10.90;99.90;;;;;;5078035;28;20070;-63
2023/09/27 03:00:42;;;;;;;7.03;3.95;;;10.90;99.90;;;;;;5087771;28;20056;-63
2023/09/27 03:03:10;;;;;;;7.22;4.10;;;10.90;99.90;;;;;;5086936;28;20040;-63
2023/09/27 03:05:37;;;;;;;;;;;10.80;99.90;;;;;;5082317;28;20044;-63
2023/09/27 03:08:04;;;;;;;5.75;4.13;;;10.90;99.90;;;;;;5076011;28;19927;-63
2023/09/27 03:10:31;;;;;;;;;;;10.80;99.90;;;;;;5076938;28;20087;-63
2023/09/27 03:12:58;;;;;;;6.13;4.03;;;10.80;99.90;;;;;;5078810;28;20426;-63
2023/09/27 03:15:26;;;;;;;5.80;4.15;;;10.80;99.90;;;;;;5102270;28;20408;-63
2023/09/27 03:17:52;;;;;;;5.18;3.88;;;10.70;99.90;;;;;;5081435;28;20132;-63
2023/09/27 03:20:21;;;;;;;6.25;3.70;;;10.70;99.90;;;;;;5089810;28;20044;-63
2023/09/27 03:22:49;;;;;;;6.25;4.00;;;10.60;99.90;;;;;;5080543;28;20044;-63
2023/09/27 03:25:19;;;;;;;5.30;3.97;;;10.60;99.90;;;;;;5078301;28;20041;-63
2023/09/27 03:27:46;;;;;;;6.50;3.88;;;10.60;99.90;;;;;;5075362;28;20484;-63
2023/09/27 03:30:16;;;;;;;4.90;3.53;;;10.60;99.90;;;;;;5078437;28;20048;-63
2023/09/27 03:32:43;;;;;;;8.68;3.88;;;10.70;99.90;;;;;;5078542;28;20054;-63
2023/09/27 03:35:10;;;;;;;8.90;4.32;;;10.70;99.90;;;;;;5077920;28;20068;-63
2023/09/27 03:37:37;;;;;;;5.32;4.07;;;10.70;99.90;;;;;;5079550;28;20048;-63
2023/09/27 03:40:13;;;;;;;8.60;4.43;;;10.70;99.90;;;;;;5084867;28;20097;-63
2023/09/27 03:42:44;;;;;;;8.15;4.55;;;10.70;99.90;;;;;;5083139;28;20044;-63
2023/09/27 03:45:14;;;;;;;5.30;3.92;;;10.70;99.90;;;;;;5065962;28;20068;-63
2023/09/27 03:47:45;;;;;;;10.35;4.35;;;10.70;99.90;;;;;;5073059;28;20098;-63
2023/09/27 03:50:16;;;;;;;12.18;4.95;;;10.70;99.90;;;;;;5082157;28;20036;-63
2023/09/27 03:52:43;;;;;;;;;;;10.70;99.90;;;;;;5092009;28;20515;-62
2023/09/27 03:55:11;;;;;;;7.43;5.13;;;10.80;99.90;;;;;;5071825;28;20281;-63
2023/09/27 03:57:40;;;;;;;8.10;4.95;;;10.80;99.90;;;;;;5082139;28;20385;-63
2023/09/27 04:00:14;;;;;;;14.05;5.93;;;10.80;99.90;;;;;;5082410;28;20119;-63
2023/09/27 04:02:44;;;;;;;8.65;5.40;;;10.80;99.90;;;;;;5077622;28;20068;-63
2023/09/27 04:05:11;;;;;;;11.57;6.00;;;10.80;99.90;;;;;;5074709;28;20044;-63
2023/09/27 04:07:39;;;;;;;9.77;5.85;;;10.80;99.90;;;;;;5081646;28;20400;-62
2023/09/27 04:10:07;;;;;;;12.30;5.57;;;10.90;99.90;;;;;;5084555;28;20032;-63
2023/09/27 04:12:35;;;;;;;9.10;5.75;;;10.90;99.90;;;;;;5081359;28;20457;-63
2023/09/27 04:15:02;;;;;;;12.02;4.65;;;10.90;99.90;;;;;;5093840;28;20044;-63
2023/09/27 04:17:29;;;;;;;12.50;7.00;;;10.90;99.90;;;;;;5083284;28;20039;-62
2023/09/27 04:19:56;;;;;;;12.18;6.85;;;10.90;99.90;;;;;;5088484;28;20131;-63
2023/09/27 04:22:23;;;;;;;13.40;8.43;;;11.00;99.90;;;;;;5095045;28;20134;-63
2023/09/27 04:24:49;;;;;;;11.98;6.82;;;11.10;99.90;;;;;;5094016;28;20113;-62
2023/09/27 04:27:16;;;;;;;11.90;7.65;;;11.20;99.90;;;;;;5094396;28;20484;-63
2023/09/27 04:29:43;;;;;;;11.60;7.35;;;11.20;99.90;;;;;;5094791;28;20044;-62
2023/09/27 04:32:10;;;;;;;17.40;7.32;;;11.20;99.90;;;;;;5087509;28;20050;-63
2023/09/27 04:34:37;;;;;;;13.63;7.88;;;11.20;99.90;;;;;;5095048;28;20048;-63
2023/09/27 04:37:04;;;;;;;13.30;8.07;;;11.20;99.90;;;;;;5083329;28;20043;-63
2023/09/27 04:39:31;;;;;;;13.45;7.93;;;11.20;99.90;;;;;;5089715;28;20149;-63
2023/09/27 04:41:58;;;;;;;13.07;7.93;;;11.20;99.90;;;;;;5092833;28;20064;-63
2023/09/27 04:44:25;;;;;;;11.10;7.78;;;11.20;99.90;;;;;;5093492;28;20477;-63
2023/09/27 04:46:53;;;;;;;11.93;8.15;;;11.20;99.90;;;;;;5084461;28;20131;-63
2023/09/27 04:49:20;;;;;;;13.20;7.88;;;11.20;99.90;;;;;;5091821;28;20045;-63
2023/09/27 04:51:47;;;;;;;13.10;8.18;;;11.30;99.90;;;;;;5085716;28;20059;-63
2023/09/27 04:54:13;;;;;;;17.63;9.15;;;11.30;99.90;;;;;;5080527;28;20037;-63
2023/09/27 04:56:40;;;;;;;11.25;7.93;;;11.40;99.90;;;;;;5086500;28;20533;-63
2023/09/27 04:59:07;;;;;;;13.30;9.27;;;11.40;99.90;;;;;;5081494;28;20435;-63
2023/09/27 05:01:34;;;;;;;14.82;8.10;;;11.50;99.90;;;;;;5077302;28;20430;-62
2023/09/27 05:04:00;;;;;;;14.48;7.82;;;11.50;99.90;;;;;;5084660;28;20064;-62
2023/09/27 05:06:28;;;;;;;14.70;8.07;;;11.50;99.90;;;;;;5086347;28;20044;-63
2023/09/27 05:08:55;;;;;;;14.07;8.15;;;11.60;99.90;;;;;;5081290;28;20136;-63
2023/09/27 05:11:22;;;;;;;16.13;8.82;;;11.60;99.90;;;;;;5059862;28;20049;-63
2023/09/27 05:13:49;;;;;;;13.80;8.20;;;11.60;99.90;;;;;;5089014;28;20043;-63
2023/09/27 05:16:15;;;;;;;14.18;7.97;;;11.70;99.90;;;;;;5085082;28;20044;-63
2023/09/27 05:18:42;;;;;;;15.23;8.13;;;11.80;99.90;;;;;;5084312;28;20051;-64
2023/09/27 05:21:09;;;;;;;14.93;7.53;;;11.80;99.90;;;;;;5079616;28;20044;-63
2023/09/27 05:23:36;;;;;;;15.48;7.20;;;11.80;99.90;;;;;;5093364;28;20044;-63
2023/09/27 05:26:03;;;;;;;7.38;5.25;;;11.80;99.90;;;;;;5079735;28;20045;-63
2023/09/27 05:28:32;;;;;;;10.45;5.38;;;11.80;99.90;;;;;;5089172;28;20048;-63
2023/09/27 05:31:00;;;;;;;6.90;4.35;;;11.80;99.90;;;;;;5075235;28;20052;-62
2023/09/27 05:33:27;;;;;;;7.03;4.15;;;11.80;99.90;;;;;;5083344;28;20492;-63
2023/09/27 05:35:54;;;;;;;7.65;4.22;;;11.70;99.90;;;;;;5083842;28;20076;-63
2023/09/27 05:38:21;;;;;;;6.88;5.10;;;11.70;99.90;;;;;;5091756;28;20070;-62
2023/09/27 05:40:48;;;;;;;7.90;4.82;;;11.70;99.90;;;;;;5084037;28;20075;-63
2023/09/27 05:43:15;;;;;;;;;;;11.80;99.90;;;;;;5084743;28;20036;-64
2023/09/27 05:45:42;;;;;;;14.38;5.75;;;11.90;99.90;;;;;;5086028;28;19931;-63
2023/09/27 05:48:09;;;;;;;7.63;3.58;;;11.90;99.90;;;;;;5080150;28;20051;-63
2023/09/27 05:50:37;;;;;;;6.22;4.15;;;11.80;99.90;;;;;;5081461;28;20052;-63
2023/09/27 05:53:05;;;;;;;7.70;4.15;;;11.70;99.90;;;;;;5082272;28;20052;-63
2023/09/27 05:55:31;;;;;;;;;;;11.70;99.90;;;;;;5080221;28;20127;-63
2023/09/27 05:57:58;;;;;;;10.73;5.15;;;11.60;99.90;;;;;;5081681;28;19920;-63
2023/09/27 06:00:26;;;;;;;13.57;5.15;;;11.70;99.90;;;;;;5088699;28;20123;-63
2023/09/27 06:02:54;;;;;;;7.43;5.30;;;11.70;99.90;;;;;;5080223;28;20067;-63
2023/09/27 06:05:21;;;;;;;;;;;11.70;99.90;;;;;;5086634;28;20404;-63
2023/09/27 06:07:48;;;;;;;14.82;6.57;;;11.70;99.90;;;;;;5076708;28;19966;-63
2023/09/27 06:10:16;;;;;;;;;;;11.80;99.90;;;;;;5083830;28;20045;-63
2023/09/27 06:12:43;;;;;;;9.18;5.95;;;11.80;99.90;;;;;;5077695;28;19920;-63
2023/09/27 06:15:12;;;;;;;11.82;8.30;;;11.90;99.90;;;;;;5074005;28;20037;-63
2023/09/27 06:17:39;;;;;;;12.73;8.43;;;11.90;99.90;;;;;;5082776;28;20474;-63
2023/09/27 06:20:11;;;;;;;16.38;8.30;;;11.90;99.90;;;;;;5073980;28;20048;-63
2023/09/27 06:22:40;;;;;;;13.43;8.40;;;11.90;99.90;;;;;;5080686;28;20056;-63
2023/09/27 06:25:07;;;;;;;15.13;7.60;;;11.90;99.90;;;;;;5080445;28;20105;-63
2023/09/27 06:27:34;;;;;;;9.02;4.85;;;12.00;99.90;;;;;;5077447;28;20047;-63
2023/09/27 06:30:03;;;;;;;5.65;3.78;;;12.00;99.90;;;;;;5092087;28;20032;-63
2023/09/27 06:32:30;;;;;;;7.18;3.67;;;12.00;99.90;;;;;;5080095;28;20136;-63
2023/09/27 06:34:57;;;;;;;;;;;12.00;99.90;;;;;;5080810;28;20052;-64
2023/09/27 06:37:24;;;;;;;5.82;3.83;;;12.00;99.90;;;;;;5091521;28;19923;-63
2023/09/27 06:39:51;;;;;;;16.15;6.28;;;12.10;99.90;;;;;;5083125;28;20052;-63
2023/09/27 06:42:19;;;;;;;10.88;7.05;;;12.20;99.90;;;;;;5081618;28;20044;-63
2023/09/27 06:44:46;;;;;;;11.80;7.85;;;12.30;99.90;;;;;;5077821;28;20036;-63
2023/09/27 06:47:12;;;;;;;11.10;8.13;;;12.40;99.90;;;;;;5089766;28;20449;-64
2023/09/27 06:49:40;;;;;;;;;;;12.50;99.90;;;;;;5080163;28;20043;-64
2023/09/27 06:52:07;;;;;;;14.15;7.78;;;12.60;99.90;;;;;;5079501;28;19924;-63
2023/09/27 06:54:34;;;;;;;12.57;7.80;;;12.70;99.90;;;;;;5084629;28;20420;-63
2023/09/27 06:57:00;;;;;;;15.88;7.88;;;12.80;99.90;;;;;;5082758;28;20051;-63
2023/09/27 06:59:27;;;;;;;16.90;7.82;;;13.00;99.90;;;;;;5071497;28;20456;-63
2023/09/27 07:01:54;;;;;;;16.42;7.72;;;13.10;99.90;;;;;;5071717;28;20048;-64
2023/09/27 07:04:21;;;;;;;9.55;6.20;;;13.20;99.90;;;;;;5079245;28;20040;-64
2023/09/27 07:06:48;;;;;;;9.90;6.38;;;13.30;99.90;;;;;;5071053;28;20044;-63
2023/09/27 07:09:16;;;;;;;10.30;6.78;;;13.40;99.90;;;;;;5072690;28;20500;-64
2023/09/27 07:11:44;;;;;;;13.13;5.95;;;13.50;99.90;;;;;;5077753;28;20497;-64
2023/09/27 07:14:19;;;;;;;9.55;6.22;;;13.60;99.90;;;;;;5089041;28;20040;-64
2023/09/27 07:16:46;;;;;;;11.52;6.65;;;13.60;99.90;;;;;;5075933;28;20052;-64
2023/09/27 07:19:28;;;;;;;9.32;6.68;;;13.60;99.90;;;;;;5082327;28;20040;-64
2023/09/27 07:21:55;;;;;;;10.98;7.22;;;13.60;99.90;;;;;;5084289;28;20076;-64
2023/09/27 07:24:22;;;;;;;15.63;7.63;;;13.60;99.90;;;;;;5080820;28;20120;-64
2023/09/27 07:26:52;;;;;;;14.25;7.68;;;13.70;99.90;;;;;;5082013;28;20123;-64
2023/09/27 07:29:20;;;;;;;12.10;7.35;;;13.80;99.90;;;;;;5072111;28;20040;-64
2023/09/27 07:31:47;;;;;;;12.40;7.75;;;13.70;99.90;;;;;;5081844;28;20047;-64
2023/09/27 07:34:13;;;;;;;13.20;7.65;;;13.80;99.90;;;;;;5088822;28;20048;-63
2023/09/27 07:36:42;;;;;;;10.57;7.15;;;13.80;99.90;;;;;;5081599;28;20126;-64
2023/09/27 07:39:09;;;;;;;11.43;7.05;;;13.80;99.90;;;;;;5081587;28;20031;-64
2023/09/27 07:41:37;;;;;;;12.82;7.88;;;13.90;99.90;;;;;;5075995;28;20058;-63
2023/09/27 07:44:07;;;;;;;;;;;13.90;99.90;;;;;;5083223;28;20127;-64
2023/09/27 07:46:34;;;;;;;14.30;7.80;;;14.00;99.90;;;;;;5082640;28;19924;-64
2023/09/27 07:49:00;;;;;;;11.90;7.70;;;14.10;99.90;;;;;;5077505;28;20495;-64
2023/09/27 07:51:27;;;;;;;14.55;7.63;;;14.30;99.90;;;;;;5082083;28;20040;-64
2023/09/27 07:53:54;;;;;;;12.82;7.93;;;14.50;99.90;;;;;;5076251;28;20047;-64
2023/09/27 07:56:23;;;;;;;13.13;8.65;;;14.70;99.90;;;;;;5080948;28;20040;-64
2023/09/27 07:58:51;;;;;;;16.40;8.60;;;14.70;99.90;;;;;;5082312;28;20067;-64
2023/09/27 08:01:23;;;;;;;12.43;8.35;;;14.50;99.90;;;;;;5074348;28;20044;-64
2023/09/27 08:04:00;;;;;;;13.88;8.70;;;14.50;99.90;;;;;;5076622;28;20041;-64
2023/09/27 08:06:27;;;;;;;15.90;8.13;;;14.70;99.90;;;;;;5079032;28;20040;-64
2023/09/27 08:08:54;;;;;;;13.68;7.88;;;14.60;99.90;;;;;;5078954;28;20035;-64
2023/09/27 08:11:21;;;;;;;17.25;8.73;;;14.30;99.90;;;;;;5087368;28;20071;-64
2023/09/27 08:13:48;;;;;;;13.13;9.15;;;14.20;99.90;;;;;;5079130;28;20079;-63
2023/09/27 08:16:15;;;;;;;16.45;9.00;;;14.00;99.90;;;;;;5079684;28;20040;-64
2023/09/27 08:18:42;;;;;;;17.15;9.75;;;13.90;99.90;;;;;;5073755;28;20055;-64
2023/09/27 08:21:09;;;;;;;16.58;10.05;;;14.00;99.90;;;;;;5082364;28;20122;-64
2023/09/27 08:23:37;;;;;;;13.02;8.75;;;14.10;99.90;;;;;;5074477;28;20028;-64
2023/09/27 08:26:04;;;;;;;16.02;8.77;;;14.30;99.90;;;;;;5078742;28;20032;-64
2023/09/27 08:28:31;;;;;;;13.50;7.80;;;14.60;99.90;;;;;;5081457;28;20043;-64
2023/09/27 08:30:59;;;;;;;;;;;14.80;99.90;;;;;;5076193;28;20075;-64
2023/09/27 08:33:26;;;;;;;11.35;6.88;;;15.00;99.90;;;;;;5079361;28;19928;-64
2023/09/27 08:35:53;;;;;;;;;;;15.10;99.90;;;;;;5079334;28;20563;-64
2023/09/27 08:38:21;;;;;;;11.05;7.78;;;15.20;99.90;;;;;;5078411;28;20011;-64
2023/09/27 08:40:49;;;;;;;12.23;7.35;;;15.20;99.90;;;;;;5079365;28;20044;-64
2023/09/27 08:43:16;;;;;;;12.80;7.43;;;15.40;99.90;;;;;;5082187;28;20044;-64
2023/09/27 08:45:45;;;;;;;11.27;6.97;;;15.60;99.90;;;;;;5074162;28;20043;-64
2023/09/27 08:48:18;;;;;;;11.60;7.00;;;15.70;99.90;;;;;;5082626;28;20040;-64
2023/09/27 08:50:45;;;;;;;11.63;6.95;;;15.70;99.90;;;;;;5082608;28;20036;-64
2023/09/27 08:53:12;;;;;;;9.68;7.07;;;15.70;99.90;;;;;;5082408;28;20517;-64
2023/09/27 08:55:43;;;;;;;10.93;6.85;;;15.90;99.90;;;;;;5084609;28;20144;-64
2023/09/27 08:58:13;;;;;;;12.38;5.88;;;16.20;99.90;;;;;;5081551;28;20118;-64
2023/09/27 09:00:41;;;;;;;11.07;6.30;;;16.20;99.90;;;;;;5085670;28;20401;-64
2023/09/27 09:03:10;;;;;;;11.73;6.25;;;16.30;99.90;;;;;;5085576;28;20044;-64
2023/09/27 09:05:39;;;;;;;11.80;5.47;;;16.50;99.90;;;;;;5076922;28;20416;-64
2023/09/27 09:08:07;;;;;;;8.65;5.03;;;16.70;99.90;;;;;;5077786;28;20068;-64
2023/09/27 09:10:33;;;;;;;11.88;6.40;;;16.80;99.90;;;;;;5081968;28;20420;-64
2023/09/27 09:13:01;;;;;;;17.10;6.13;;;16.90;99.90;;;;;;5079851;28;20052;-64
2023/09/27 09:15:40;;;;;;;13.70;5.68;;;16.90;99.90;;;;;;5081929;28;20143;-64
2023/09/27 09:18:14;;;;;;;12.35;5.30;;;16.90;99.90;;;;;;5081609;28;20064;-64
2023/09/27 09:20:51;;;;;;;8.32;5.53;;;17.10;99.90;;;;;;5081083;28;20544;-64
2023/09/27 09:23:33;;;;;;;9.65;5.82;;;17.20;99.90;;;;;;5082154;28;20037;-64
2023/09/27 09:26:05;;;;;;;12.95;6.05;;;17.30;99.90;;;;;;5078812;28;20032;-64
2023/09/27 09:28:35;;;;;;;9.50;5.07;;;17.50;99.90;;;;;;5081337;28;20037;-64
2023/09/27 09:31:02;;;;;;;10.93;6.07;;;17.50;99.90;;;;;;5081739;28;20443;-64
2023/09/27 09:33:29;;;;;;;9.60;5.75;;;17.70;99.90;;;;;;5081679;28;20040;-64
2023/09/27 09:35:56;;;;;;;13.93;5.90;;;17.60;99.90;;;;;;5081568;28;20045;-64
2023/09/27 09:38:30;;;;;;;10.27;5.25;;;17.80;99.90;;;;;;5082137;28;20037;-64
2023/09/27 09:40:59;;;;;;;10.07;4.57;;;17.90;99.90;;;;;;5079757;28;20044;-64
2023/09/27 09:43:30;;;;;;;8.07;5.00;;;18.00;99.90;;;;;;5083594;28;20051;-64
2023/09/27 09:45:57;;;;;;;8.93;5.15;;;18.20;99.90;;;;;;5081151;28;20041;-64
2023/09/27 09:48:24;;;;;;;11.88;4.82;;;18.20;99.90;;;;;;5081037;28;20051;-64
2023/09/27 09:50:51;;;;;;;11.75;5.97;;;18.40;99.90;;;;;;5078185;28;20411;-64
2023/09/27 09:53:20;;;;;;;8.80;4.80;;;18.50;99.90;;;;;;5084227;28;20480;-64
2023/09/27 09:55:49;;;;;;;9.77;4.82;;;18.60;99.90;;;;;;5076897;28;20416;-64
2023/09/27 09:58:51;;;;;;;10.43;5.10;;;18.60;99.90;;;;;;5079774;28;20103;-64
2023/09/27 10:01:21;;;;;;;9.07;5.18;;;18.70;99.90;;;;;;5080975;28;20404;-64
2023/09/27 10:03:51;;;;;;;10.15;4.45;;;18.80;99.90;;;;;;5084543;28;20459;-64
2023/09/27 10:06:19;;;;;;;8.13;4.85;;;18.90;99.90;;;;;;5081477;28;20036;-64
2023/09/27 10:09:05;;;;;;;9.02;5.30;;;19.00;99.90;;;;;;5078310;28;20040;-64
2023/09/27 10:11:33;;;;;;;8.95;4.75;;;19.20;99.90;;;;;;5075883;28;20409;-64
2023/09/27 10:14:03;;;;;;;11.35;5.40;;;19.30;99.90;;;;;;5084998;28;20047;-64
2023/09/27 10:16:31;;;;;;;8.20;4.70;;;19.40;99.90;;;;;;5082490;28;20139;-64
2023/09/27 10:19:01;;;;;;;8.43;5.18;;;19.50;99.90;;;;;;5080525;28;20043;-64
2023/09/27 10:21:27;;;;;;;7.50;4.55;;;19.60;99.90;;;;;;5081550;28;20037;-64
2023/09/27 10:24:02;;;;;;;6.60;4.53;;;19.70;99.90;;;;;;5082562;28;20044;-64
2023/09/27 10:26:28;;;;;;;9.70;4.20;;;19.70;99.90;;;;;;5082602;28;20075;-64
2023/09/27 10:29:10;;;;;;;;;;;19.80;99.90;;;;;;5077082;28;20484;-64
2023/09/27 10:31:57;;;;;;;8.35;4.57;;;19.80;99.90;;;;;;5077282;28;19930;-64
2023/09/27 10:34:33;;;;;;;9.07;4.70;;;19.80;99.90;;;;;;5080497;28;20044;-64
2023/09/27 10:37:02;;;;;;;12.50;4.30;;;19.80;99.90;;;;;;5080003;28;20040;-64
2023/09/27 10:40:20;;;;;;;5.97;4.03;;;19.80;99.90;;;;;;5072077;28;20036;-64
2023/09/27 10:42:48;;;;;;;15.88;5.30;;;19.80;99.90;;;;;;5076061;28;20115;-64
2023/09/27 10:45:16;;;;;;;7.95;4.40;;;19.80;99.90;;;;;;5083532;28;20045;-64
2023/09/27 10:47:46;;;;;;;7.03;4.40;;;19.90;99.90;;;;;;5074186;28;20482;-64
2023/09/27 10:50:13;;;;;;;6.85;4.00;;;19.90;99.90;;;;;;5078816;28;20039;-64
2023/09/27 10:52:40;;;;;;;8.93;4.50;;;20.00;99.90;;;;;;5081064;28;20075;-64
2023/09/27 10:55:12;;;;;;;8.40;4.25;;;20.20;99.90;;;;;;5077799;28;20040;-64
2023/09/27 10:57:40;;;;;;;9.00;4.15;;;20.30;99.90;;;;;;5073159;28;20051;-64
2023/09/27 11:00:11;;;;;;;6.10;4.07;;;20.40;99.90;;;;;;5079867;28;20055;-64
2023/09/27 11:02:38;;;;;;;10.68;4.78;;;20.40;99.90;;;;;;5081847;28;20072;-64
2023/09/27 11:05:06;;;;;;;11.38;4.18;;;20.50;99.90;;;;;;5079755;28;20040;-64
2023/09/27 11:07:45;;;;;;;8.15;4.55;;;20.40;99.90;;;;;;5080345;28;20377;-64
2023/09/27 11:10:33;;;;;;;7.32;3.70;;;20.50;99.90;;;;;;5083489;28;20483;-64
2023/09/27 11:13:11;;;;;;;6.78;3.88;;;20.40;99.90;;;;;;5078637;28;20549;-64
2023/09/27 11:15:39;;;;;;;9.52;4.65;;;20.60;99.90;;;;;;5087475;28;20062;-64
2023/09/27 11:18:07;;;;;;;10.07;4.53;;;20.60;99.90;;;;;;5079346;28;20484;-64
2023/09/27 11:20:35;;;;;;;9.50;3.97;;;20.70;99.90;;;;;;5081345;28;20044;-64
2023/09/27 11:23:03;;;;;;;7.25;4.03;;;20.80;99.90;;;;;;5083826;28;20451;-64
2023/09/27 11:25:32;;;;;;;8.55;4.95;;;20.90;99.90;;;;;;5082864;28;20044;-64
2023/09/27 11:27:59;;;;;;;7.93;4.18;;;20.90;99.90;;;;;;5086471;28;20064;-64
2023/09/27 11:30:30;;;;;;;11.25;5.22;;;20.90;99.90;;;;;;5080096;28;20098;-64
2023/09/27 11:33:01;;;;;;;8.65;4.80;;;20.90;99.90;;;;;;5075580;28;20238;-64
2023/09/27 11:35:28;;;;;;;11.02;4.68;;;21.00;99.90;;;;;;5082661;28;20071;-64
2023/09/27 11:38:11;;;;;;;;;;;20.90;99.90;;;;;;5075084;28;20048;-64
2023/09/27 11:40:42;;;;;;;11.63;5.07;;;20.90;99.90;;;;;;5081782;28;20265;-64
2023/09/27 11:43:12;;;;;;;9.63;4.40;;;20.90;99.90;;;;;;5079564;28;20036;-64
2023/09/27 11:45:47;;;;;;;12.30;4.78;;;21.00;99.90;;;;;;5079159;28;20040;-64
2023/09/27 11:48:15;;;;;;;8.90;4.22;;;21.10;99.90;;;;;;5079064;28;20037;-64
2023/09/27 11:50:42;;;;;;;8.73;4.63;;;21.10;99.90;;;;;;5073745;28;20501;-64
2023/09/27 11:53:10;;;;;;;6.00;4.30;;;21.10;99.90;;;;;;5082906;28;20032;-64
2023/09/27 11:55:37;;;;;;;6.75;4.43;;;21.30;99.90;;;;;;5081408;28;20055;-64
2023/09/27 11:58:04;;;;;;;7.05;4.10;;;21.30;99.90;;;;;;5077844;28;20484;-64
2023/09/27 12:00:32;;;;;;;7.00;4.68;;;21.30;99.90;;;;;;5074098;28;20059;-64
2023/09/27 12:02:58;;;;;;;11.00;4.68;;;21.30;99.90;;;;;;5081388;28;20047;-64
2023/09/27 12:05:26;;;;;;;12.75;4.53;;;21.40;99.90;;;;;;5074918;28;20508;-64
2023/09/27 12:07:55;;;;;;;8.98;3.90;;;21.40;99.90;;;;;;5078391;28;20044;-64
2023/09/27 12:10:22;;;;;;;7.38;4.20;;;21.50;99.90;;;;;;5078142;28;20040;-64
2023/09/27 12:12:49;;;;;;;6.95;4.63;;;21.70;99.90;;;;;;5074106;28;20040;-64
2023/09/27 12:15:15;;;;;;;8.00;4.28;;;21.80;99.90;;;;;;5077187;28;20136;-64
2023/09/27 12:17:42;;;;;;;6.70;4.50;;;21.90;99.90;;;;;;5075628;28;20049;-64
2023/09/27 12:20:10;;;;;;;5.03;3.80;;;21.90;99.90;;;;;;5086620;28;20426;-64
2023/09/27 12:22:53;;;;;;;11.00;4.85;;;22.00;99.90;;;;;;5078032;28;20047;-64
2023/09/27 12:25:20;;;;;;;9.52;4.43;;;22.00;99.90;;;;;;5094288;28;20507;-64
2023/09/27 12:27:47;;;;;;;7.53;4.70;;;21.90;99.90;;;;;;5082359;28;20724;-64
2023/09/27 12:30:14;;;;;;;7.57;4.38;;;21.80;99.90;;;;;;5080324;28;20544;-64
2023/09/27 12:32:40;;;;;;;8.32;5.20;;;21.80;99.90;;;;;;5086205;28;20032;-64
2023/09/27 12:35:07;;;;;;;;;;;21.80;99.90;;;;;;5086784;28;20139;-64
2023/09/27 12:37:35;;;;;;;8.68;4.75;;;21.80;99.90;;;;;;5077114;28;20015;-64
2023/09/27 12:40:03;;;;;;;7.22;4.65;;;21.80;99.90;;;;;;5086157;28;20497;-64
2023/09/27 12:42:31;;;;;;;11.15;4.95;;;21.80;99.90;;;;;;5086115;28;20396;-64
2023/09/27 12:44:57;;;;;;;10.55;4.60;;;21.90;99.90;;;;;;5077523;28;20132;-65
2023/09/27 12:47:25;;;;;;;;;;;21.90;99.90;;;;;;5085932;28;20062;-64
2023/09/27 12:49:52;;;;;;;6.60;4.63;;;21.90;99.90;;;;;;5077505;28;19927;-64
2023/09/27 12:52:19;;;;;;;7.15;4.00;;;21.90;99.90;;;;;;5085930;28;20278;-64
2023/09/27 12:54:47;;;;;;;9.80;4.75;;;22.00;99.90;;;;;;5077852;28;20041;-64